createdAt,value
2022-10-15T00:01:06.600Z,9.30
2022-10-15T00:03:38.981Z,9.30
2022-10-15T00:06:08.033Z,9.30
2022-10-15T00:08:36.490Z,9.30
2022-10-15T00:11:07.907Z,9.40
2022-10-15T00:13:38.250Z,9.40
2022-10-15T00:16:12.270Z,9.30
2022-10-15T00:18:40.314Z,9.40
2022-10-15T00:21:08.990Z,9.40
2022-10-15T00:23:37.283Z,9.40
2022-10-15T00:26:06.474Z,9.50
2022-10-15T00:28:34.694Z,9.40
2022-10-15T00:33:38.439Z,9.50
2022-10-15T00:36:07.768Z,9.50
2022-10-15T00:38:35.853Z,9.50
2022-10-15T00:41:05.110Z,9.50
2022-10-15T00:43:44.021Z,9.50
2022-10-15T00:46:23.319Z,9.50
2022-10-15T00:48:57.216Z,9.50
2022-10-15T00:51:27.682Z,9.50
2022-10-15T00:53:55.918Z,9.60
2022-10-15T00:56:25.170Z,9.50
2022-10-15T00:58:53.941Z,9.50
2022-10-15T01:01:23.468Z,9.50
2022-10-15T01:03:53.077Z,9.50
2022-10-15T01:06:21.197Z,9.50
2022-10-15T01:08:49.416Z,9.50
2022-10-15T01:11:26.583Z,9.50
2022-10-15T01:14:00.780Z,9.60
2022-10-15T01:16:34.236Z,9.50
2022-10-15T01:19:07.830Z,9.60
2022-10-15T01:21:39.623Z,9.60
2022-10-15T01:24:22.270Z,9.60
2022-10-15T01:27:09.063Z,9.50
2022-10-15T01:29:46.602Z,9.60
2022-10-15T01:32:18.658Z,9.60
2022-10-15T01:34:49.886Z,9.60
2022-10-15T01:37:20.665Z,9.60
2022-10-15T01:39:51.346Z,9.60
2022-10-15T01:42:21.588Z,9.60
2022-10-15T01:44:51.946Z,9.60
2022-10-15T01:47:24.442Z,9.60
2022-10-15T01:49:54.306Z,9.60
2022-10-15T01:52:24.089Z,9.60
2022-10-15T01:54:53.340Z,9.60
2022-10-15T01:57:22.899Z,9.60
2022-10-15T01:59:51.276Z,9.70
2022-10-15T02:02:19.378Z,9.60
2022-10-15T02:04:48.915Z,9.70
2022-10-15T02:07:19.317Z,9.60
2022-10-15T02:09:51.533Z,9.60
2022-10-15T02:12:26.817Z,9.70
2022-10-15T02:14:57.415Z,9.60
2022-10-15T02:17:29.465Z,9.70
2022-10-15T02:20:01.464Z,9.70
2022-10-15T02:22:32.018Z,9.70
2022-10-15T02:25:03.373Z,9.70
2022-10-15T02:27:32.202Z,9.70
2022-10-15T02:30:01.743Z,9.80
2022-10-15T02:32:31.662Z,9.80
2022-10-15T02:35:01.641Z,9.80
2022-10-15T02:37:30.666Z,9.80
2022-10-15T02:39:58.931Z,9.80
2022-10-15T02:42:27.207Z,9.80
2022-10-15T02:44:55.367Z,9.90
2022-10-15T02:49:56.309Z,9.90
2022-10-15T02:52:26.200Z,9.90
2022-10-15T02:54:54.590Z,9.80
2022-10-15T02:57:22.934Z,9.80
2022-10-15T02:59:51.268Z,9.80
2022-10-15T03:02:19.603Z,9.80
2022-10-15T03:04:47.741Z,9.80
2022-10-15T03:07:16.019Z,9.90
2022-10-15T03:09:45.458Z,9.80
2022-10-15T03:12:13.658Z,9.80
2022-10-15T03:14:41.837Z,9.90
2022-10-15T03:17:09.879Z,9.80
2022-10-15T03:19:37.890Z,9.80
2022-10-15T03:22:05.962Z,9.80
2022-10-15T03:24:33.966Z,9.80
2022-10-15T03:27:03.457Z,9.80
2022-10-15T03:29:31.663Z,9.70
2022-10-15T03:32:02.094Z,9.70
2022-10-15T03:34:30.141Z,9.70
2022-10-15T03:37:00.586Z,9.80
2022-10-15T03:39:28.559Z,9.80
2022-10-15T03:41:56.776Z,9.80
2022-10-15T03:44:26.204Z,9.80
2022-10-15T03:46:54.362Z,9.80
2022-10-15T03:49:22.753Z,9.80
2022-10-15T03:51:50.808Z,9.80
2022-10-15T03:54:19.079Z,9.80
2022-10-15T03:56:47.096Z,9.90
2022-10-15T03:59:16.434Z,9.90
2022-10-15T04:01:46.028Z,9.90
2022-10-15T04:04:14.247Z,10.00
2022-10-15T04:06:42.812Z,9.90
2022-10-15T04:09:11.720Z,9.90
2022-10-15T04:11:39.772Z,10.00
2022-10-15T04:14:08.072Z,9.90
2022-10-15T04:16:36.147Z,9.90
2022-10-15T04:19:08.661Z,9.90
2022-10-15T04:21:39.041Z,9.90
2022-10-15T04:24:07.457Z,9.90
2022-10-15T04:26:35.651Z,9.90
2022-10-15T04:29:03.944Z,9.90
2022-10-15T04:31:32.051Z,9.90
2022-10-15T04:34:00.186Z,9.90
2022-10-15T04:36:29.778Z,9.90
2022-10-15T04:38:57.876Z,9.80
2022-10-15T04:41:26.118Z,9.80
2022-10-15T04:43:54.133Z,9.80
2022-10-15T04:46:22.794Z,9.80
2022-10-15T04:48:51.116Z,9.80
2022-10-15T04:51:20.313Z,9.80
2022-10-15T04:53:49.801Z,9.70
2022-10-15T04:56:21.541Z,9.80
2022-10-15T04:58:50.213Z,9.80
2022-10-15T05:01:18.975Z,9.80
2022-10-15T05:03:50.673Z,9.80
2022-10-15T05:06:19.629Z,9.80
2022-10-15T05:08:49.516Z,9.80
2022-10-15T05:11:18.952Z,9.80
2022-10-15T05:13:47.030Z,9.80
2022-10-15T05:16:15.751Z,9.70
2022-10-15T05:18:44.678Z,9.80
2022-10-15T05:21:12.861Z,9.80
2022-10-15T05:23:41.395Z,9.80
2022-10-15T05:26:13.387Z,9.80
2022-10-15T05:28:41.481Z,9.90
2022-10-15T05:31:14.769Z,9.90
2022-10-15T05:33:46.026Z,9.90
2022-10-15T05:36:14.868Z,9.80
2022-10-15T05:38:43.055Z,9.90
2022-10-15T05:41:12.721Z,9.90
2022-10-15T05:43:41.486Z,9.80
2022-10-15T05:46:10.436Z,9.90
2022-10-15T05:48:38.425Z,9.90
2022-10-15T05:51:07.281Z,9.90
2022-10-15T05:53:35.553Z,9.90
2022-10-15T05:56:03.738Z,9.90
2022-10-15T05:58:37.165Z,9.90
2022-10-15T06:01:07.458Z,9.90
2022-10-15T06:03:35.666Z,10.00
2022-10-15T06:06:03.691Z,10.00
2022-10-15T06:08:32.333Z,10.00
2022-10-15T06:11:06.751Z,10.10
2022-10-15T06:13:40.484Z,10.10
2022-10-15T06:16:08.813Z,10.10
2022-10-15T06:18:37.215Z,10.10
2022-10-15T06:21:08.267Z,10.10
2022-10-15T06:23:36.657Z,10.10
2022-10-15T06:26:05.240Z,10.20
2022-10-15T06:28:33.842Z,10.20
2022-10-15T06:31:03.361Z,10.30
2022-10-15T06:33:31.943Z,10.30
2022-10-15T06:36:01.912Z,10.20
2022-10-15T06:38:30.143Z,10.30
2022-10-15T06:41:01.357Z,10.40
2022-10-15T06:43:31.142Z,10.40
2022-10-15T06:46:01.387Z,10.40
2022-10-15T06:48:30.802Z,10.50
2022-10-15T06:51:00.227Z,10.50
2022-10-15T06:53:28.924Z,10.60
2022-10-15T06:55:57.895Z,10.60
2022-10-15T06:58:26.353Z,10.70
2022-10-15T07:00:54.384Z,10.60
2022-10-15T07:03:22.612Z,10.80
2022-10-15T07:05:52.091Z,10.80
2022-10-15T07:08:20.277Z,10.80
2022-10-15T07:10:48.334Z,10.90
2022-10-15T07:13:16.360Z,10.90
2022-10-15T07:15:46.414Z,10.90
2022-10-15T07:18:14.731Z,11.00
2022-10-15T07:20:45.649Z,10.90
2022-10-15T07:23:17.539Z,11.00
2022-10-15T07:25:45.698Z,11.00
2022-10-15T07:28:13.709Z,11.00
2022-10-15T07:30:44.744Z,11.10
2022-10-15T07:33:12.974Z,11.10
2022-10-15T07:35:41.017Z,11.10
2022-10-15T07:38:09.363Z,11.10
2022-10-15T07:40:38.760Z,11.20
2022-10-15T07:43:07.003Z,11.20
2022-10-15T07:45:35.775Z,11.30
2022-10-15T07:48:03.805Z,11.40
2022-10-15T07:50:35.419Z,11.40
2022-10-15T07:53:05.457Z,11.50
2022-10-15T07:55:33.493Z,11.40
2022-10-15T07:58:05.762Z,11.50
2022-10-15T08:00:34.138Z,11.50
2022-10-15T08:03:02.183Z,11.50
2022-10-15T08:05:30.290Z,11.50
2022-10-15T08:07:58.310Z,11.60
2022-10-15T08:10:26.463Z,11.50
2022-10-15T08:12:54.574Z,11.60
2022-10-15T08:15:26.419Z,11.50
2022-10-15T08:17:54.524Z,11.60
2022-10-15T08:20:22.677Z,11.60
2022-10-15T08:22:50.928Z,11.60
2022-10-15T08:25:18.975Z,11.70
2022-10-15T08:27:47.026Z,11.70
2022-10-15T08:30:17.804Z,11.70
2022-10-15T08:32:47.386Z,11.70
2022-10-15T08:35:15.402Z,11.80
2022-10-15T08:37:43.530Z,11.70
2022-10-15T08:40:13.973Z,11.80
2022-10-15T08:42:43.434Z,11.80
2022-10-15T08:45:13.731Z,11.80
2022-10-15T08:47:45.221Z,11.80
2022-10-15T08:50:19.122Z,11.90
2022-10-15T08:52:48.130Z,11.90
2022-10-15T08:55:17.033Z,11.90
2022-10-15T08:57:47.602Z,11.90
2022-10-15T09:00:20.012Z,11.90
2022-10-15T09:02:51.864Z,11.90
2022-10-15T09:05:28.327Z,12.00
2022-10-15T09:07:59.937Z,12.00
2022-10-15T09:10:32.241Z,12.00
2022-10-15T09:13:03.382Z,12.00
2022-10-15T09:15:34.258Z,12.00
2022-10-15T09:18:02.246Z,12.10
2022-10-15T09:20:34.197Z,12.10
2022-10-15T09:23:04.085Z,12.20
2022-10-15T09:25:36.165Z,12.30
2022-10-15T09:28:09.959Z,12.40
2022-10-15T09:30:41.491Z,12.50
2022-10-15T09:33:14.798Z,12.50
2022-10-15T09:35:44.979Z,12.50
2022-10-15T09:38:20.994Z,12.40
2022-10-15T09:40:56.755Z,12.40
2022-10-15T09:43:31.007Z,12.50
2022-10-15T09:45:59.062Z,12.60
2022-10-15T09:48:33.554Z,12.70
2022-10-15T09:51:05.126Z,12.70
2022-10-15T09:53:42.054Z,12.80
2022-10-15T09:56:13.358Z,12.80
2022-10-15T09:58:45.335Z,13.00
2022-10-15T10:01:18.618Z,13.10
2022-10-15T10:03:46.702Z,13.10
2022-10-15T10:06:16.675Z,13.20
2022-10-15T10:08:49.993Z,13.10
2022-10-15T10:11:18.343Z,13.10
2022-10-15T10:13:47.276Z,13.20
2022-10-15T10:16:17.043Z,13.20
2022-10-15T10:18:51.020Z,13.20
2022-10-15T10:21:24.615Z,13.30
2022-10-15T10:23:52.682Z,13.30
2022-10-15T10:26:21.564Z,13.30
2022-10-15T10:28:56.943Z,13.20
2022-10-15T10:31:29.764Z,13.20
2022-10-15T10:33:58.127Z,13.30
2022-10-15T10:36:28.709Z,13.40
2022-10-15T10:38:57.838Z,13.60
2022-10-15T10:41:46.142Z,13.60
2022-10-15T10:44:20.634Z,13.70
2022-10-15T10:47:02.376Z,13.70
2022-10-15T10:49:34.265Z,13.50
2022-10-15T10:52:03.717Z,13.40
2022-10-15T10:54:33.122Z,13.30
2022-10-15T10:57:01.829Z,13.40
2022-10-15T10:59:32.730Z,13.50
2022-10-15T11:02:03.189Z,13.60
2022-10-15T11:04:33.885Z,13.70
2022-10-15T11:07:05.386Z,13.90
2022-10-15T11:09:40.059Z,13.90
2022-10-15T11:12:13.650Z,13.90
2022-10-15T11:14:46.473Z,13.90
2022-10-15T11:17:18.936Z,13.90
2022-10-15T11:20:20.715Z,13.90
2022-10-15T11:22:53.446Z,13.90
2022-10-15T11:25:24.359Z,13.90
2022-10-15T11:27:57.727Z,13.90
2022-10-15T11:30:31.650Z,13.90
2022-10-15T11:33:08.834Z,14.00
2022-10-15T11:35:52.934Z,14.10
2022-10-15T11:38:29.665Z,14.10
2022-10-15T11:41:07.402Z,14.20
2022-10-15T11:43:44.946Z,14.30
2022-10-15T11:46:16.668Z,14.40
2022-10-15T11:48:52.636Z,14.50
2022-10-15T11:51:25.725Z,14.60
2022-10-15T11:54:04.882Z,14.50
2022-10-15T11:56:38.078Z,14.50
2022-10-15T11:59:15.559Z,14.60
2022-10-15T12:01:46.753Z,14.70
2022-10-15T12:04:17.658Z,14.80
2022-10-15T12:06:48.806Z,14.70
2022-10-15T12:09:25.945Z,14.50
2022-10-15T12:11:59.555Z,14.40
2022-10-15T12:14:33.414Z,14.30
2022-10-15T12:17:06.049Z,14.30
2022-10-15T12:19:38.990Z,14.20
2022-10-15T12:22:12.619Z,14.30
2022-10-15T12:25:01.444Z,14.30
2022-10-15T12:27:38.286Z,14.20
2022-10-15T12:30:14.003Z,14.20
2022-10-15T12:32:43.917Z,14.10
2022-10-15T12:37:53.626Z,14.40
2022-10-15T12:40:27.251Z,14.40
2022-10-15T12:42:58.927Z,14.30
2022-10-15T12:45:34.631Z,14.20
2022-10-15T12:48:23.301Z,14.00
2022-10-15T12:51:14.079Z,14.00
2022-10-15T12:53:43.636Z,13.90
2022-10-15T12:56:21.998Z,13.90
2022-10-15T12:58:52.322Z,13.90
2022-10-15T13:01:30.309Z,13.90
2022-10-15T13:04:01.470Z,13.90
2022-10-15T13:06:34.154Z,13.90
2022-10-15T13:09:06.814Z,13.90
2022-10-15T13:11:37.728Z,13.90
2022-10-15T13:14:16.672Z,14.00
2022-10-15T13:16:45.120Z,14.00
2022-10-15T13:19:18.694Z,14.00
2022-10-15T13:21:50.905Z,14.00
2022-10-15T13:24:19.786Z,13.90
2022-10-15T13:26:47.844Z,13.80
2022-10-15T13:29:18.778Z,13.70
2022-10-15T13:31:48.232Z,13.70
2022-10-15T13:34:21.073Z,13.70
2022-10-15T13:36:50.138Z,13.60
2022-10-15T13:39:28.220Z,13.50
2022-10-15T13:42:04.948Z,13.50
2022-10-15T13:44:34.761Z,13.40
2022-10-15T13:47:03.029Z,13.50
2022-10-15T13:49:31.485Z,13.40
2022-10-15T13:51:59.530Z,13.30
2022-10-15T13:54:31.679Z,13.30
2022-10-15T13:57:01.918Z,13.20
2022-10-15T13:59:31.643Z,13.20
2022-10-15T14:02:04.245Z,13.20
2022-10-15T14:04:33.022Z,13.20
2022-10-15T14:07:04.375Z,13.10
2022-10-15T14:09:33.519Z,13.10
2022-10-15T14:12:03.624Z,13.10
2022-10-15T14:14:33.895Z,13.10
2022-10-15T14:17:04.674Z,13.10
2022-10-15T14:19:33.656Z,13.10
2022-10-15T14:22:02.182Z,13.10
2022-10-15T14:24:33.530Z,13.00
2022-10-15T14:27:06.096Z,13.00
2022-10-15T14:29:38.613Z,13.00
2022-10-15T14:32:20.487Z,13.00
2022-10-15T14:34:48.672Z,12.90
2022-10-15T14:37:30.225Z,12.90
2022-10-15T14:40:04.185Z,12.90
2022-10-15T14:42:33.880Z,12.80
2022-10-15T14:45:12.175Z,12.80
2022-10-15T14:47:42.705Z,12.80
2022-10-15T14:50:11.861Z,12.70
2022-10-15T14:52:44.881Z,12.70
2022-10-15T14:55:19.660Z,12.80
2022-10-15T14:57:49.252Z,12.70
2022-10-15T15:00:21.146Z,12.80
2022-10-15T15:02:50.998Z,12.70
2022-10-15T15:05:21.711Z,12.70
2022-10-15T15:07:49.848Z,12.70
2022-10-15T15:10:18.153Z,12.70
2022-10-15T15:12:47.309Z,12.70
2022-10-15T15:15:16.201Z,12.70
2022-10-15T15:17:45.143Z,12.70
2022-10-15T15:20:14.688Z,12.70
2022-10-15T15:22:43.291Z,12.60
2022-10-15T15:25:15.699Z,12.60
2022-10-15T15:27:43.954Z,12.60
2022-10-15T15:30:15.945Z,12.60
2022-10-15T15:32:44.124Z,12.60
2022-10-15T15:35:20.022Z,12.60
2022-10-15T15:37:48.266Z,12.60
2022-10-15T15:40:16.403Z,12.60
2022-10-15T15:42:45.284Z,12.60
2022-10-15T15:45:18.113Z,12.60
2022-10-15T15:47:46.194Z,12.50
2022-10-15T15:50:14.476Z,12.60
2022-10-15T15:52:44.189Z,12.60
2022-10-15T15:55:12.680Z,12.50
2022-10-15T15:57:40.747Z,12.40
2022-10-15T16:00:10.571Z,12.40
2022-10-15T16:02:39.340Z,12.50
2022-10-15T16:05:08.860Z,12.50
2022-10-15T16:07:36.951Z,12.50
2022-10-15T16:10:09.394Z,12.50
2022-10-15T16:12:37.553Z,12.40
2022-10-15T16:15:07.894Z,12.40
2022-10-15T16:17:38.312Z,12.40
2022-10-15T16:20:10.018Z,12.40
2022-10-15T16:22:38.062Z,12.40
2022-10-15T16:25:08.226Z,12.40
2022-10-15T16:27:37.685Z,12.30
2022-10-15T16:30:06.213Z,12.30
2022-10-15T16:32:34.473Z,12.20
2022-10-15T16:35:02.602Z,12.20
2022-10-15T16:37:30.713Z,12.20
2022-10-15T16:39:58.734Z,12.20
2022-10-15T16:42:28.368Z,12.20
2022-10-15T16:44:56.407Z,12.20
2022-10-15T16:47:24.564Z,12.20
2022-10-15T16:49:53.667Z,12.20
2022-10-15T16:52:22.000Z,12.20
2022-10-15T16:54:50.170Z,12.20
2022-10-15T16:57:18.372Z,12.20
2022-10-15T16:59:47.782Z,12.20
2022-10-15T17:02:16.047Z,12.20
2022-10-15T17:04:44.242Z,12.20
2022-10-15T17:07:12.253Z,12.20
2022-10-15T17:09:40.370Z,12.20
2022-10-15T17:12:08.466Z,12.20
2022-10-15T17:14:36.997Z,12.20
2022-10-15T17:17:07.857Z,12.30
2022-10-15T17:19:35.998Z,12.20
2022-10-15T17:22:10.593Z,12.30
2022-10-15T17:24:38.693Z,12.30
2022-10-15T17:27:09.210Z,12.30
2022-10-15T17:29:37.333Z,12.30
2022-10-15T17:32:05.497Z,12.20
2022-10-15T17:34:33.620Z,12.20
2022-10-15T17:37:02.186Z,12.20
2022-10-15T17:39:34.266Z,12.20
2022-10-15T17:42:02.303Z,12.20
2022-10-15T17:44:30.460Z,12.10
2022-10-15T17:46:58.646Z,12.20
2022-10-15T17:49:29.872Z,12.20
2022-10-15T17:51:57.954Z,12.20
2022-10-15T17:54:25.981Z,12.20
2022-10-15T17:56:55.447Z,12.10
2022-10-15T17:59:25.499Z,12.10
2022-10-15T18:01:58.283Z,12.00
2022-10-15T18:04:27.613Z,12.00
2022-10-15T18:06:55.878Z,12.10
2022-10-15T18:09:24.169Z,12.00
2022-10-15T18:11:52.414Z,12.00
2022-10-15T18:14:22.087Z,12.10
2022-10-15T18:16:50.282Z,12.10
2022-10-15T18:19:18.497Z,12.10
2022-10-15T18:21:49.462Z,12.20
2022-10-15T18:24:21.480Z,12.20
2022-10-15T18:26:50.038Z,12.00
2022-10-15T18:29:25.308Z,12.10
2022-10-15T18:31:57.752Z,12.10
2022-10-15T18:34:26.131Z,12.10
2022-10-15T18:36:56.802Z,12.10
2022-10-15T18:39:25.228Z,12.10
2022-10-15T18:41:57.944Z,12.10
2022-10-15T18:44:29.425Z,12.10
2022-10-15T18:46:57.539Z,12.10
2022-10-15T18:49:25.691Z,12.20
2022-10-15T18:51:54.349Z,12.10
2022-10-15T18:54:22.725Z,12.10
2022-10-15T18:56:51.128Z,12.20
2022-10-15T18:59:19.294Z,12.10
2022-10-15T19:01:49.500Z,12.20
2022-10-15T19:04:18.925Z,12.20
2022-10-15T19:06:48.282Z,12.20
2022-10-15T19:09:17.261Z,12.20
2022-10-15T19:11:48.633Z,12.20
2022-10-15T19:14:17.186Z,12.20
2022-10-15T19:16:45.711Z,12.10
2022-10-15T19:19:17.531Z,12.10
2022-10-15T19:21:46.367Z,12.10
2022-10-15T19:24:14.727Z,12.10
2022-10-15T19:26:42.964Z,12.10
2022-10-15T19:29:11.097Z,12.10
2022-10-15T19:31:41.327Z,12.10
2022-10-15T19:34:09.563Z,12.10
2022-10-15T19:36:40.047Z,12.10
2022-10-15T19:39:09.243Z,12.10
2022-10-15T19:41:38.117Z,12.20
2022-10-15T19:44:08.060Z,12.20
2022-10-15T19:46:36.101Z,12.10
2022-10-15T19:49:05.171Z,12.10
2022-10-15T19:51:33.232Z,12.20
2022-10-15T19:54:02.893Z,12.10
2022-10-15T19:56:31.015Z,12.20
2022-10-15T19:59:01.389Z,12.10
2022-10-15T20:01:30.449Z,12.10
2022-10-15T20:04:01.705Z,12.10
2022-10-15T20:06:33.362Z,12.10
2022-10-15T20:09:03.151Z,12.20
2022-10-15T20:11:31.252Z,12.20
2022-10-15T20:13:59.601Z,12.10
2022-10-15T20:16:30.070Z,12.10
2022-10-15T20:19:01.874Z,12.10
2022-10-15T20:21:30.088Z,12.10
2022-10-15T20:24:00.849Z,12.10
2022-10-15T20:26:30.399Z,12.10
2022-10-15T20:28:58.521Z,12.10
2022-10-15T20:31:31.982Z,12.10
2022-10-15T20:34:00.898Z,12.10
2022-10-15T20:36:29.258Z,12.10
2022-10-15T20:38:57.660Z,12.10
2022-10-15T20:41:25.721Z,12.10
2022-10-15T20:43:56.272Z,12.10
2022-10-15T20:46:25.712Z,12.00
2022-10-15T20:48:54.462Z,12.00
2022-10-15T20:51:24.718Z,12.00
2022-10-15T20:53:55.764Z,12.00
2022-10-15T20:56:24.637Z,12.00
2022-10-15T20:58:52.866Z,12.00
2022-10-15T21:01:22.407Z,12.00
2022-10-15T21:03:50.720Z,12.00
2022-10-15T21:06:20.634Z,12.00
2022-10-15T21:08:48.930Z,12.00
2022-10-15T21:11:17.205Z,12.10
2022-10-15T21:13:47.802Z,12.00
2022-10-15T21:16:15.888Z,12.10
2022-10-15T21:18:45.510Z,12.10
2022-10-15T21:21:14.374Z,12.10
2022-10-15T21:23:43.291Z,12.10
2022-10-15T21:26:12.071Z,12.20
2022-10-15T21:28:43.662Z,12.20
2022-10-15T21:31:12.618Z,12.10
2022-10-15T21:33:40.881Z,12.20
2022-10-15T21:36:14.979Z,12.20
2022-10-15T21:38:43.698Z,12.10
2022-10-15T21:41:11.706Z,12.10
2022-10-15T21:43:40.072Z,12.10
2022-10-15T21:46:09.293Z,12.10
2022-10-15T21:48:37.788Z,12.10
2022-10-15T21:51:06.575Z,12.10
2022-10-15T21:53:37.627Z,12.10
2022-10-15T21:56:08.149Z,12.10
2022-10-15T21:58:37.891Z,12.10
2022-10-15T22:01:10.282Z,12.10
2022-10-15T22:03:39.742Z,12.10
2022-10-15T22:06:08.651Z,12.10
2022-10-15T22:08:38.571Z,12.20
2022-10-15T22:11:10.450Z,12.20
2022-10-15T22:13:38.993Z,12.10
2022-10-15T22:16:07.706Z,12.20
2022-10-15T22:18:35.968Z,12.20
2022-10-15T22:21:10.428Z,12.20
2022-10-15T22:23:39.970Z,12.20
2022-10-15T22:26:08.007Z,12.20
2022-10-15T22:28:36.269Z,12.20
2022-10-15T22:31:07.549Z,12.20
2022-10-15T22:33:36.154Z,12.20
2022-10-15T22:36:04.912Z,12.20
2022-10-15T22:38:33.077Z,12.20
2022-10-15T22:41:04.845Z,12.20
2022-10-15T22:43:34.598Z,12.20
2022-10-15T22:46:03.374Z,12.20
2022-10-15T22:48:35.858Z,12.20
2022-10-15T22:51:04.646Z,12.10
2022-10-15T22:53:33.147Z,12.10
2022-10-15T22:56:03.178Z,12.10
2022-10-15T22:58:34.515Z,12.10
2022-10-15T23:01:07.884Z,12.00
2022-10-15T23:03:36.339Z,12.00
2022-10-15T23:06:04.742Z,12.00
2022-10-15T23:08:33.263Z,12.00
2022-10-15T23:11:10.083Z,12.00
2022-10-15T23:13:38.485Z,11.90
2022-10-15T23:16:07.338Z,11.90
2022-10-15T23:18:35.704Z,12.00
2022-10-15T23:21:04.649Z,11.90
2022-10-15T23:23:32.663Z,12.00
2022-10-15T23:26:00.838Z,12.00
2022-10-15T23:28:30.490Z,12.00
2022-10-15T23:30:58.603Z,12.00
2022-10-15T23:33:29.364Z,12.00
2022-10-15T23:35:58.030Z,12.00
2022-10-15T23:38:26.105Z,12.00
2022-10-15T23:40:54.357Z,12.00
2022-10-15T23:43:22.370Z,12.00
2022-10-15T23:45:51.809Z,12.00
2022-10-15T23:48:19.928Z,12.10
2022-10-15T23:50:48.035Z,12.00
2022-10-15T23:53:16.494Z,12.00
2022-10-15T23:55:44.525Z,12.00
2022-10-15T23:58:12.739Z,12.10
